SBOSBO FUE / GCFV
Speedbird OnlineSpeedbird Online FUE / GCFV

Fuerteventura Airport
18:03 23°C

Location Fuerteventura, Spain
Latitude: 28.452699661254883
Longitude: -13.863800048828125
Local Time 18:03 on 30 May 2024
UTC +1 hours (Atlantic/Canary)
Currency £1 equals EUR 1.18
METAR GCFV 301630Z 35015KT 9999 FEW020 OVC025 23/16 Q1013
TAF TAF GCFV 301400Z 3015/3115 34013KT 9999 BKN025 TX23/3114Z TN20/3106Z
Weather As Of 30 May 2024 18:03
Description Overcast clouds
Wind 28 km/h from North (350°)
Cloud Cover 100%
Precipitation Rain: none, Snow: none
Sunrise 06:58
Sunset 20:47
NOTAM 5 active NOTAM
Rotations During the last 90 days there were
31 flights from LGW
31 flights to LGW
Lounges Jable Lounge, Main Terminal
Web Airport Website | Wikipedia
Codes IATA: FUE
ICAO: GCFV
Altitude 26 Meter / 85 Feet
Distance 2,816 KM / 1,750 Miles
from London.
Runways
RunwayLength (m)Surface
013535Asphalt
193535Asphalt
Radio
TypeDescriptionFrequency
APPCANARIAS APP129.3
ATISATIS118.65
GNDGND121.7
TWRTWR118.5
Live ATC



Support Speedbird Online

© 2017-2024 Speedbird Online